createdAt,value
2018-12-04T00:00:54.460Z,6.60
2018-12-04T00:03:25.846Z,6.60
2018-12-04T00:05:56.011Z,6.60
2018-12-04T00:08:27.092Z,6.60
2018-12-04T00:10:58.081Z,6.60
2018-12-04T00:13:28.572Z,6.60
2018-12-04T00:15:59.058Z,6.50
2018-12-04T00:18:29.819Z,6.50
2018-12-04T00:21:02.540Z,6.50
2018-12-04T00:23:33.327Z,6.50
2018-12-04T00:26:04.245Z,6.50
2018-12-04T00:28:34.696Z,6.50
2018-12-04T00:31:04.553Z,6.50
2018-12-04T00:33:34.876Z,6.50
2018-12-04T00:36:06.093Z,6.50
2018-12-04T00:38:36.405Z,6.50
2018-12-04T00:41:07.045Z,6.40
2018-12-04T00:43:38.051Z,6.40
2018-12-04T00:46:09.909Z,6.40
2018-12-04T00:48:40.473Z,6.40
2018-12-04T00:51:10.794Z,6.40
2018-12-04T00:53:40.808Z,6.40
2018-12-04T00:56:11.136Z,6.40
2018-12-04T00:58:41.800Z,6.40
2018-12-04T01:01:11.820Z,6.40
2018-12-04T01:03:41.983Z,6.40
2018-12-04T01:06:12.571Z,6.40
2018-12-04T01:08:42.791Z,6.40
2018-12-04T01:11:13.076Z,6.40
2018-12-04T01:13:43.193Z,6.40
2018-12-04T01:16:13.421Z,6.40
2018-12-04T01:18:43.955Z,6.40
2018-12-04T01:21:14.182Z,6.40
2018-12-04T01:23:45.015Z,6.40
2018-12-04T01:26:30.805Z,6.40
2018-12-04T01:29:01.754Z,6.40
2018-12-04T01:31:32.512Z,6.40
2018-12-04T01:34:02.846Z,6.40
2018-12-04T01:36:32.703Z,6.40
2018-12-04T01:39:04.105Z,6.40
2018-12-04T01:41:34.402Z,6.30
2018-12-04T01:44:04.669Z,6.40
2018-12-04T01:46:34.594Z,6.40
2018-12-04T01:49:05.013Z,6.40
2018-12-04T01:51:35.283Z,6.50
2018-12-04T01:54:05.443Z,6.50
2018-12-04T01:56:35.669Z,6.50
2018-12-04T01:59:06.068Z,6.50
2018-12-04T02:01:38.090Z,6.50
2018-12-04T02:04:08.429Z,6.50
2018-12-04T02:06:38.430Z,6.50
2018-12-04T02:09:08.984Z,6.50
2018-12-04T02:11:39.136Z,6.50
2018-12-04T02:14:09.449Z,6.50
2018-12-04T02:16:39.505Z,6.50
2018-12-04T02:19:09.724Z,6.50
2018-12-04T02:21:40.164Z,6.50
2018-12-04T02:24:10.497Z,6.50
2018-12-04T02:26:40.510Z,6.50
2018-12-04T02:29:11.625Z,6.50
2018-12-04T02:31:42.178Z,6.50
2018-12-04T02:34:12.452Z,6.50
2018-12-04T02:36:42.638Z,6.50
2018-12-04T02:39:12.775Z,6.50
2018-12-04T02:41:43.087Z,6.50
2018-12-04T02:44:13.173Z,6.50
2018-12-04T02:46:43.155Z,6.50
2018-12-04T02:49:13.833Z,6.50
2018-12-04T02:51:43.967Z,6.50
2018-12-04T02:54:16.827Z,6.50
2018-12-04T02:56:47.066Z,6.40
2018-12-04T02:59:16.995Z,6.40
2018-12-04T03:01:47.624Z,6.40
2018-12-04T03:04:17.455Z,6.40
2018-12-04T03:06:48.133Z,6.30
2018-12-04T03:09:18.478Z,6.30
2018-12-04T03:11:48.709Z,6.30
2018-12-04T03:14:18.625Z,6.30
2018-12-04T03:16:49.013Z,6.30
2018-12-04T03:19:18.864Z,6.30
2018-12-04T03:21:48.694Z,6.30
2018-12-04T03:24:18.665Z,6.30
2018-12-04T03:26:48.947Z,6.30
2018-12-04T03:29:19.453Z,6.30
2018-12-04T03:31:49.393Z,6.30
2018-12-04T03:34:19.430Z,6.30
2018-12-04T03:36:49.470Z,6.30
2018-12-04T03:39:19.423Z,6.30
2018-12-04T03:41:49.628Z,6.30
2018-12-04T03:44:19.691Z,6.30
2018-12-04T03:46:49.736Z,6.30
2018-12-04T03:49:19.632Z,6.20
2018-12-04T03:51:49.666Z,6.30
2018-12-04T03:54:19.906Z,6.20
2018-12-04T03:56:50.001Z,6.30
2018-12-04T03:59:20.343Z,6.20
2018-12-04T04:01:50.743Z,6.30
2018-12-04T04:04:21.623Z,6.20
2018-12-04T04:06:51.893Z,6.20
2018-12-04T04:09:22.054Z,6.20
2018-12-04T04:11:52.082Z,6.20
2018-12-04T04:14:22.516Z,6.20
2018-12-04T04:16:52.631Z,6.30
2018-12-04T04:19:23.523Z,6.30
2018-12-04T04:21:53.857Z,6.30
2018-12-04T04:24:24.312Z,6.30
2018-12-04T04:26:54.482Z,6.30
2018-12-04T04:29:24.324Z,6.30
2018-12-04T04:31:54.496Z,6.30
2018-12-04T04:34:25.457Z,6.30
2018-12-04T04:36:56.194Z,6.30
2018-12-04T04:39:26.167Z,6.30
2018-12-04T04:41:55.949Z,6.30
2018-12-04T04:44:25.913Z,6.30
2018-12-04T04:46:55.892Z,6.40
2018-12-04T04:49:26.137Z,6.40
2018-12-04T04:51:55.985Z,6.40
2018-12-04T04:54:28.145Z,6.30
2018-12-04T04:56:59.151Z,6.30
2018-12-04T04:59:30.114Z,6.30
2018-12-04T05:01:59.983Z,6.30
2018-12-04T05:04:30.880Z,6.30
2018-12-04T05:07:01.827Z,6.30
2018-12-04T05:09:31.867Z,6.30
2018-12-04T05:12:02.134Z,6.30
2018-12-04T05:14:33.595Z,6.30
2018-12-04T05:17:04.050Z,6.40
2018-12-04T05:19:34.329Z,6.40
2018-12-04T05:22:04.909Z,6.40
2018-12-04T05:24:34.670Z,6.40
2018-12-04T05:27:04.709Z,6.40
2018-12-04T05:29:34.871Z,6.40
2018-12-04T05:32:05.601Z,6.40
2018-12-04T05:34:36.443Z,6.40
2018-12-04T05:37:08.496Z,6.40
2018-12-04T05:39:40.142Z,6.40
2018-12-04T05:42:10.093Z,6.40
2018-12-04T05:44:41.391Z,6.40
2018-12-04T05:47:12.033Z,6.40
2018-12-04T05:49:43.326Z,6.40
2018-12-04T05:52:13.950Z,6.40
2018-12-04T05:54:44.969Z,6.40
2018-12-04T05:57:15.264Z,6.40
2018-12-04T05:59:45.316Z,6.40
2018-12-04T06:02:15.853Z,6.40
2018-12-04T06:04:46.822Z,6.40
2018-12-04T06:07:16.930Z,6.40
2018-12-04T06:09:47.251Z,6.40
2018-12-04T06:12:17.846Z,6.50
2018-12-04T06:14:48.167Z,6.50
2018-12-04T06:17:18.707Z,6.50
2018-12-04T06:19:49.144Z,6.50
2018-12-04T06:22:19.932Z,6.50
2018-12-04T06:24:50.442Z,6.50
2018-12-04T06:27:20.772Z,6.50
2018-12-04T06:29:51.192Z,6.50
2018-12-04T06:32:22.045Z,6.50
2018-12-04T06:34:52.979Z,6.50
2018-12-04T06:37:23.381Z,6.60
2018-12-04T06:39:54.597Z,6.50
2018-12-04T06:42:25.049Z,6.60
2018-12-04T06:44:55.601Z,6.50
2018-12-04T06:47:25.994Z,6.60
2018-12-04T06:49:56.015Z,6.60
2018-12-04T06:52:25.972Z,6.60
2018-12-04T06:54:55.985Z,6.60
2018-12-04T06:57:27.236Z,6.60
2018-12-04T06:59:57.264Z,6.60
2018-12-04T07:02:27.210Z,6.60
2018-12-04T07:04:57.375Z,6.60
2018-12-04T07:07:27.325Z,6.60
2018-12-04T07:09:57.995Z,6.60
2018-12-04T07:12:28.043Z,6.60
2018-12-04T07:14:57.952Z,6.60
2018-12-04T07:17:27.981Z,6.60
2018-12-04T07:19:57.883Z,6.60
2018-12-04T07:22:27.695Z,6.60
2018-12-04T07:24:58.176Z,6.60
2018-12-04T07:27:28.237Z,6.60
2018-12-04T07:29:58.324Z,6.60
2018-12-04T07:32:29.039Z,6.60
2018-12-04T07:34:59.945Z,6.60
2018-12-04T07:37:30.301Z,6.60
2018-12-04T07:40:00.550Z,6.70
2018-12-04T07:42:30.832Z,6.70
2018-12-04T07:45:01.638Z,6.70
2018-12-04T07:47:32.529Z,6.70
2018-12-04T07:50:03.007Z,6.70
2018-12-04T07:52:33.486Z,6.70
2018-12-04T07:55:03.822Z,6.70
2018-12-04T07:57:34.576Z,6.70
2018-12-04T08:00:06.107Z,6.70
2018-12-04T08:02:36.541Z,6.70
2018-12-04T08:05:07.268Z,6.70
2018-12-04T08:07:37.897Z,6.80
2018-12-04T08:10:08.740Z,6.80
2018-12-04T08:12:39.172Z,6.80
2018-12-04T08:15:09.564Z,6.90
2018-12-04T08:17:40.648Z,6.90
2018-12-04T08:20:11.438Z,6.90
2018-12-04T08:22:42.065Z,6.90
2018-12-04T08:25:13.052Z,7.00
2018-12-04T08:27:43.736Z,7.00
2018-12-04T08:30:14.960Z,7.00
2018-12-04T08:32:45.365Z,7.00
2018-12-04T08:35:21.982Z,7.00
2018-12-04T08:37:52.438Z,7.00
2018-12-04T08:40:23.248Z,7.00
2018-12-04T08:42:53.481Z,7.00
2018-12-04T08:45:24.387Z,7.00
2018-12-04T08:47:55.187Z,7.00
2018-12-04T08:50:26.018Z,7.00
2018-12-04T08:52:57.297Z,7.00
2018-12-04T08:55:29.000Z,7.00
2018-12-04T08:57:59.441Z,7.10
2018-12-04T09:00:30.379Z,7.00
2018-12-04T09:03:00.473Z,7.10
2018-12-04T09:05:31.018Z,7.10
2018-12-04T09:08:01.360Z,7.10
2018-12-04T09:10:31.620Z,7.00
2018-12-04T09:13:02.780Z,7.10
2018-12-04T09:15:33.137Z,7.10
2018-12-04T09:18:03.682Z,7.10
2018-12-04T09:20:34.958Z,7.10
2018-12-04T09:23:05.486Z,7.10
2018-12-04T09:25:35.990Z,7.20
2018-12-04T09:28:07.125Z,7.20
2018-12-04T09:30:38.578Z,7.20
2018-12-04T09:33:09.118Z,7.20
2018-12-04T09:35:40.205Z,7.20
2018-12-04T09:38:10.575Z,7.20
2018-12-04T09:40:41.544Z,7.20
2018-12-04T09:43:12.082Z,7.20
2018-12-04T09:45:42.270Z,7.20
2018-12-04T09:48:12.492Z,7.20
2018-12-04T09:50:43.511Z,7.20
2018-12-04T09:53:13.552Z,7.20
2018-12-04T09:55:43.863Z,7.30
2018-12-04T09:58:14.644Z,7.30
2018-12-04T10:00:44.812Z,7.30
2018-12-04T10:03:15.240Z,7.40
2018-12-04T10:05:45.615Z,7.40
2018-12-04T10:08:16.157Z,7.50
2018-12-04T10:10:51.940Z,7.50
2018-12-04T10:13:22.063Z,7.50
2018-12-04T10:15:52.374Z,7.50
2018-12-04T10:18:23.831Z,7.60
2018-12-04T10:20:54.749Z,7.60
2018-12-04T10:23:25.278Z,7.60
2018-12-04T10:25:56.263Z,7.60
2018-12-04T10:28:27.143Z,7.70
2018-12-04T10:31:02.979Z,7.70
2018-12-04T10:33:33.123Z,7.70
2018-12-04T10:36:03.094Z,7.70
2018-12-04T10:38:33.595Z,7.70
2018-12-04T10:41:04.848Z,7.70
2018-12-04T10:43:35.544Z,7.70
2018-12-04T10:46:05.490Z,7.70
2018-12-04T10:48:35.600Z,7.70
2018-12-04T10:51:06.410Z,7.80
2018-12-04T10:53:36.650Z,7.70
2018-12-04T10:56:06.972Z,7.80
2018-12-04T10:58:37.792Z,7.80
2018-12-04T11:01:13.833Z,7.80
2018-12-04T11:03:44.073Z,7.80
2018-12-04T11:06:14.257Z,7.80
2018-12-04T11:08:44.917Z,7.80
2018-12-04T11:11:15.294Z,7.90
2018-12-04T11:13:46.078Z,7.90
2018-12-04T11:16:16.332Z,7.90
2018-12-04T11:18:46.717Z,7.90
2018-12-04T11:21:17.032Z,7.90
2018-12-04T11:23:47.091Z,7.90
2018-12-04T11:26:17.688Z,7.90
2018-12-04T11:28:47.841Z,7.90
2018-12-04T11:31:18.972Z,7.90
2018-12-04T11:33:49.926Z,7.90
2018-12-04T11:36:20.384Z,7.90
2018-12-04T11:38:50.519Z,7.90
2018-12-04T11:41:20.847Z,7.90
2018-12-04T11:43:51.528Z,7.90
2018-12-04T11:46:22.788Z,7.90
2018-12-04T11:48:53.727Z,7.90
2018-12-04T11:51:25.956Z,7.90
2018-12-04T11:53:56.866Z,7.90
2018-12-04T11:56:27.418Z,7.90
2018-12-04T11:58:58.424Z,7.90
2018-12-04T12:01:30.992Z,7.90
2018-12-04T12:04:02.071Z,7.90
2018-12-04T12:06:32.712Z,7.90
2018-12-04T12:09:04.218Z,7.90
2018-12-04T12:11:35.695Z,7.90
2018-12-04T12:14:06.482Z,7.90
2018-12-04T12:16:36.566Z,7.90
2018-12-04T12:19:07.187Z,7.90
2018-12-04T12:21:37.369Z,7.90
2018-12-04T12:24:07.583Z,7.90
2018-12-04T12:26:37.704Z,7.90
2018-12-04T12:29:08.485Z,7.90
2018-12-04T12:31:39.131Z,7.90
2018-12-04T12:34:09.413Z,7.90
2018-12-04T12:36:39.963Z,8.00
2018-12-04T12:39:10.036Z,7.90
2018-12-04T12:41:41.989Z,7.90
2018-12-04T12:44:12.804Z,8.00
2018-12-04T12:46:43.236Z,8.00
2018-12-04T12:49:14.006Z,8.00
2018-12-04T12:51:48.473Z,8.00
2018-12-04T12:54:18.937Z,8.00
2018-12-04T12:56:49.184Z,8.10
2018-12-04T12:59:19.506Z,8.10
2018-12-04T13:01:50.867Z,8.10
2018-12-04T13:04:21.393Z,8.10
2018-12-04T13:06:51.682Z,8.10
2018-12-04T13:09:22.045Z,8.10
2018-12-04T13:11:52.925Z,8.10
2018-12-04T13:14:23.283Z,8.10
2018-12-04T13:16:53.369Z,8.10
2018-12-04T13:19:24.156Z,8.10
2018-12-04T13:21:54.361Z,8.10
2018-12-04T13:24:25.155Z,8.10
2018-12-04T13:26:55.741Z,8.00
2018-12-04T13:29:26.061Z,8.00
2018-12-04T13:31:56.709Z,7.90
2018-12-04T13:34:27.723Z,7.90
2018-12-04T13:36:58.605Z,7.90
2018-12-04T13:39:28.683Z,7.80
2018-12-04T13:41:59.980Z,7.80
2018-12-04T13:44:30.487Z,7.80
2018-12-04T13:47:01.195Z,7.70
2018-12-04T13:49:31.445Z,7.70
2018-12-04T13:52:02.454Z,7.70
2018-12-04T13:54:32.538Z,7.70
2018-12-04T13:57:02.898Z,7.70
2018-12-04T13:59:34.880Z,7.60
2018-12-04T14:02:05.142Z,7.60
2018-12-04T14:04:35.915Z,7.60
2018-12-04T14:07:06.164Z,7.60
2018-12-04T14:09:36.464Z,7.60
2018-12-04T14:12:07.219Z,7.50
2018-12-04T14:14:37.314Z,7.40
2018-12-04T14:17:07.984Z,7.40
2018-12-04T14:19:38.400Z,7.30
2018-12-04T14:22:09.063Z,7.30
2018-12-04T14:24:41.327Z,7.20
2018-12-04T14:27:12.142Z,7.20
2018-12-04T14:29:42.563Z,7.10
2018-12-04T14:32:13.572Z,7.00
2018-12-04T14:34:43.774Z,7.00
2018-12-04T14:37:14.544Z,7.00
2018-12-04T14:39:44.765Z,6.90
2018-12-04T14:42:15.046Z,6.80
2018-12-04T14:44:45.353Z,6.80
2018-12-04T14:47:16.253Z,6.80
2018-12-04T14:49:47.120Z,6.70
2018-12-04T14:52:17.974Z,6.70
2018-12-04T14:54:48.671Z,6.70
2018-12-04T14:57:18.649Z,6.60
2018-12-04T14:59:49.850Z,6.60
2018-12-04T15:02:20.793Z,6.60
2018-12-04T15:04:51.448Z,6.60
2018-12-04T15:07:21.894Z,6.60
2018-12-04T15:09:53.053Z,6.50
2018-12-04T15:12:23.133Z,6.50
2018-12-04T15:14:53.445Z,6.50
2018-12-04T15:17:23.903Z,6.50
2018-12-04T15:19:54.532Z,6.50
2018-12-04T15:22:25.725Z,6.50
2018-12-04T15:24:58.074Z,6.40
2018-12-04T15:27:28.788Z,6.40
2018-12-04T15:30:00.128Z,6.40
2018-12-04T15:32:30.693Z,6.40
2018-12-04T15:35:01.003Z,6.40
2018-12-04T15:37:32.408Z,6.40
2018-12-04T15:40:03.169Z,6.40
2018-12-04T15:42:33.797Z,6.40
2018-12-04T15:45:05.383Z,6.30
2018-12-04T15:47:36.424Z,6.30
2018-12-04T15:50:07.541Z,6.30
2018-12-04T15:52:38.474Z,6.30
2018-12-04T15:55:09.071Z,6.30
2018-12-04T15:57:39.811Z,6.30
2018-12-04T16:00:10.910Z,6.20
2018-12-04T16:02:42.604Z,6.30
2018-12-04T16:05:13.012Z,6.20
2018-12-04T16:07:43.664Z,6.20
2018-12-04T16:10:15.657Z,6.20
2018-12-04T16:12:46.015Z,6.20
2018-12-04T16:15:16.482Z,6.20
2018-12-04T16:17:46.811Z,6.20
2018-12-04T16:20:17.057Z,6.20
2018-12-04T16:22:48.530Z,6.20
2018-12-04T16:25:19.036Z,6.20
2018-12-04T16:27:49.441Z,6.20
2018-12-04T16:30:19.791Z,6.10
2018-12-04T16:32:50.912Z,6.10
2018-12-04T16:35:21.279Z,6.00
2018-12-04T16:37:51.566Z,6.00
2018-12-04T16:40:22.486Z,5.90
2018-12-04T16:42:54.401Z,5.90
2018-12-04T16:45:25.023Z,5.90
2018-12-04T16:47:55.285Z,5.80
2018-12-04T16:50:25.565Z,5.80
2018-12-04T16:52:56.461Z,5.80
2018-12-04T16:55:27.379Z,5.80
2018-12-04T16:57:57.706Z,5.80
2018-12-04T17:00:28.773Z,5.70
2018-12-04T17:02:59.013Z,5.70
2018-12-04T17:05:30.194Z,5.70
2018-12-04T17:08:00.457Z,5.70
2018-12-04T17:10:32.272Z,5.70
2018-12-04T17:13:02.851Z,5.70
2018-12-04T17:15:33.796Z,5.70
2018-12-04T17:18:05.182Z,5.70
2018-12-04T17:20:35.683Z,5.70
2018-12-04T17:23:06.644Z,5.70
2018-12-04T17:25:36.966Z,5.70
2018-12-04T17:28:08.038Z,5.70
2018-12-04T17:30:38.656Z,5.60
2018-12-04T17:33:08.749Z,5.60
2018-12-04T17:35:39.820Z,5.50
2018-12-04T17:38:10.453Z,5.50
2018-12-04T17:40:41.629Z,5.50
2018-12-04T17:43:15.814Z,5.50
2018-12-04T17:45:46.082Z,5.50
2018-12-04T17:50:53.021Z,5.50
2018-12-04T17:53:23.344Z,5.40
2018-12-04T17:55:55.004Z,5.40
2018-12-04T17:58:25.855Z,5.40
2018-12-04T18:00:57.091Z,5.40
2018-12-04T18:03:28.090Z,5.40
2018-12-04T18:05:58.807Z,5.40
2018-12-04T18:08:29.023Z,5.30
2018-12-04T18:11:01.244Z,5.40
2018-12-04T18:13:32.794Z,5.40
2018-12-04T18:16:09.050Z,5.30
2018-12-04T18:18:39.885Z,5.30
2018-12-04T18:21:13.640Z,5.30
2018-12-04T18:23:50.247Z,5.30
2018-12-04T18:26:27.022Z,5.30
2018-12-04T18:28:56.876Z,5.30
2018-12-04T18:31:28.961Z,5.30
2018-12-04T18:33:59.361Z,5.30
2018-12-04T18:36:31.996Z,5.20
2018-12-04T18:39:02.671Z,5.30
2018-12-04T18:41:35.717Z,5.30
2018-12-04T18:44:08.844Z,5.20
2018-12-04T18:46:39.997Z,5.20
2018-12-04T18:49:10.915Z,5.20
2018-12-04T18:51:42.305Z,5.10
2018-12-04T18:54:13.387Z,5.10
2018-12-04T18:56:43.975Z,5.10
2018-12-04T18:59:14.391Z,5.00
2018-12-04T19:01:44.600Z,5.00
2018-12-04T19:04:15.145Z,5.00
2018-12-04T19:06:50.758Z,4.90
2018-12-04T19:09:21.638Z,4.90
2018-12-04T19:11:51.788Z,4.90
2018-12-04T19:14:23.764Z,4.80
2018-12-04T19:16:54.886Z,4.70
2018-12-04T19:19:26.226Z,4.70
2018-12-04T19:21:56.909Z,4.60
2018-12-04T19:24:30.362Z,4.50
2018-12-04T19:27:03.266Z,4.50
2018-12-04T19:29:35.793Z,4.40
2018-12-04T19:32:08.968Z,4.40
2018-12-04T19:34:39.196Z,4.30
2018-12-04T19:37:11.365Z,4.20
2018-12-04T19:39:42.385Z,4.10
2018-12-04T19:42:12.914Z,4.10
2018-12-04T19:44:45.016Z,4.10
2018-12-04T19:47:16.923Z,4.00
2018-12-04T19:52:27.402Z,4.00
2018-12-04T19:54:59.009Z,3.80
2018-12-04T19:57:31.736Z,3.80
2018-12-04T20:00:03.805Z,3.70
2018-12-04T20:02:34.184Z,3.60
2018-12-04T20:05:04.979Z,3.70
2018-12-04T20:07:35.571Z,3.70
2018-12-04T20:10:07.748Z,3.60
2018-12-04T20:12:38.542Z,3.60
2018-12-04T20:15:09.570Z,3.50
2018-12-04T20:17:40.901Z,3.50
2018-12-04T20:20:11.533Z,3.40
2018-12-04T20:22:42.198Z,3.40
2018-12-04T20:25:14.286Z,3.30
2018-12-04T20:27:46.795Z,3.30
2018-12-04T20:30:18.396Z,3.20
2018-12-04T20:32:50.598Z,3.20
2018-12-04T20:35:22.634Z,3.20
2018-12-04T20:37:53.351Z,3.20
2018-12-04T20:40:31.169Z,3.20
2018-12-04T20:42:58.154Z,3.20
2018-12-04T20:45:30.054Z,3.20
2018-12-04T20:48:02.159Z,3.10
2018-12-04T20:50:34.166Z,3.10
2018-12-04T20:53:08.261Z,3.10
2018-12-04T20:55:39.700Z,3.00
2018-12-04T20:58:10.486Z,3.00
2018-12-04T21:00:40.966Z,2.90
2018-12-04T21:03:11.171Z,2.90
2018-12-04T21:05:42.372Z,2.80
2018-12-04T21:08:13.103Z,2.80
2018-12-04T21:10:48.657Z,2.80
2018-12-04T21:13:19.449Z,2.80
2018-12-04T21:15:50.030Z,2.80
2018-12-04T21:18:20.884Z,2.80
2018-12-04T21:23:28.339Z,2.80
2018-12-04T21:25:59.642Z,2.70
2018-12-04T21:28:31.194Z,2.70
2018-12-04T21:31:06.821Z,2.60
2018-12-04T21:33:42.539Z,2.70
2018-12-04T21:36:18.146Z,2.70
2018-12-04T21:38:53.946Z,2.70
2018-12-04T21:41:29.846Z,2.70
2018-12-04T21:44:05.636Z,2.60
2018-12-04T21:46:40.912Z,2.60
2018-12-04T21:49:11.676Z,2.60
2018-12-04T21:51:42.381Z,2.60
2018-12-04T21:54:13.415Z,2.60
2018-12-04T21:56:43.929Z,2.60
2018-12-04T21:59:15.023Z,2.60
2018-12-04T22:01:45.353Z,2.60
2018-12-04T22:04:15.625Z,2.60
2018-12-04T22:06:45.914Z,2.50
2018-12-04T22:09:16.817Z,2.50
2018-12-04T22:11:47.197Z,2.50
2018-12-04T22:14:18.959Z,2.40
2018-12-04T22:16:49.171Z,2.40
2018-12-04T22:19:19.790Z,2.40
2018-12-04T22:21:51.156Z,2.40
2018-12-04T22:24:21.999Z,2.40
2018-12-04T22:26:52.125Z,2.30
2018-12-04T22:29:22.668Z,2.30
2018-12-04T22:31:52.994Z,2.30
2018-12-04T22:34:23.044Z,2.30
2018-12-04T22:36:53.500Z,2.30
2018-12-04T22:39:24.303Z,2.30
2018-12-04T22:41:55.087Z,2.30
2018-12-04T22:44:43.450Z,2.20
2018-12-04T22:47:17.909Z,2.20
2018-12-04T22:49:48.427Z,2.20
2018-12-04T22:52:19.130Z,2.20
2018-12-04T22:54:49.432Z,2.20
2018-12-04T22:57:20.013Z,2.10
2018-12-04T22:59:50.252Z,2.10
2018-12-04T23:02:20.627Z,2.10
2018-12-04T23:04:52.824Z,2.10
2018-12-04T23:07:23.317Z,2.10
2018-12-04T23:09:53.886Z,2.10
2018-12-04T23:12:24.578Z,2.10
2018-12-04T23:14:54.613Z,2.10
2018-12-04T23:17:25.374Z,2.20
2018-12-04T23:19:55.681Z,2.20
2018-12-04T23:22:25.883Z,2.10
2018-12-04T23:24:56.207Z,2.10
2018-12-04T23:27:26.640Z,2.10
2018-12-04T23:29:56.906Z,2.10
2018-12-04T23:32:27.092Z,2.10
2018-12-04T23:34:57.341Z,2.00
2018-12-04T23:37:27.866Z,2.00
2018-12-04T23:39:58.444Z,2.00
2018-12-04T23:42:28.905Z,2.00
2018-12-04T23:44:58.911Z,2.00
2018-12-04T23:47:30.072Z,2.00
2018-12-04T23:50:00.603Z,2.00
2018-12-04T23:52:31.108Z,1.90
2018-12-04T23:55:01.755Z,1.90
2018-12-04T23:57:31.637Z,1.80
